Halfway's Hourly Summary for Tuesday, March 14, 2017
Hour Temp
(f)
RH
(%)
Solar Rad.
(MJ/m2)
Rainfall
(in)
Wind
(mph)
3/14/2017 12:00 AM 44 49 0 0 10.04
3/14/2017 1:00 AM 42 53 0 0 7.99
3/14/2017 2:00 AM 41 56 0 0 7.31
3/14/2017 3:00 AM 38 62 0 0 4.77
3/14/2017 4:00 AM 37 67 0 0 4.94
3/14/2017 5:00 AM 35 70 0 0 3.81
3/14/2017 6:00 AM 35 73 0 0 5.78
3/14/2017 7:00 AM 35 73 0 0 5.85
3/14/2017 8:00 AM 35 73 0 0 5.91
3/14/2017 9:00 AM 37 69 0.23 0 6.98
3/14/2017 10:00 AM 44 63 0.87 0 11.64
3/14/2017 11:00 AM 51 54 1.64 0 13.79
3/14/2017 12:00 PM 55 46 2.21 0 12.48
3/14/2017 1:00 PM 61 39 2.71 0 9.97
3/14/2017 2:00 PM 65 32 2.73 0 6.78
3/14/2017 3:00 PM 70 23 3 0 5.79
3/14/2017 4:00 PM 74 18 2.78 0 3.74
3/14/2017 5:00 PM 77 15 2.26 0 3.58
3/14/2017 6:00 PM 78 14 1.59 0 3.84
3/14/2017 7:00 PM 75 15 0.73 0 4.72
3/14/2017 8:00 PM 71 20 0.24 0 8.41
3/14/2017 9:00 PM 63 27 0 0 9.67
3/14/2017 10:00 PM 59 40 0 0 15.37
3/14/2017 11:00 PM 54 48 0 0 16.53
Data Summary 53 45 20.99 0.00 7.90